sensor_id;sensor_type;location;lat;lon;timestamp;pressure;altitude;pressure_sealevel;temperature;humidity
51227;BME280;42714;48.260;10.980;2023-05-02T00:04:14;971.2;;;9.1;100.0
51227;BME280;42714;48.260;10.980;2023-05-02T00:09:15;971.2;;;9.1;100.0
51227;BME280;42714;48.260;10.980;2023-05-02T00:14:16;971.3;;;9.0;100.0
51227;BME280;42714;48.260;10.980;2023-05-02T00:19:17;971.3;;;9.0;100.0
51227;BME280;42714;48.260;10.980;2023-05-02T00:24:18;971.3;;;9.0;100.0
51227;BME280;42714;48.260;10.980;2023-05-02T00:29:19;971.3;;;9.0;100.0
51227;BME280;42714;48.260;10.980;2023-05-02T00:34:20;971.3;;;8.9;100.0
51227;BME280;42714;48.260;10.980;2023-05-02T00:39:21;971.3;;;8.9;100.0
51227;BME280;42714;48.260;10.980;2023-05-02T00:44:22;971.3;;;8.8;100.0
51227;BME280;42714;48.260;10.980;2023-05-02T00:49:23;971.3;;;8.8;100.0
51227;BME280;42714;48.260;10.980;2023-05-02T00:54:24;971.3;;;8.8;100.0
51227;BME280;42714;48.260;10.980;2023-05-02T00:59:25;971.3;;;8.7;100.0
51227;BME280;42714;48.260;10.980;2023-05-02T01:14:28;971.4;;;8.6;100.0
51227;BME280;42714;48.260;10.980;2023-05-02T01:19:31;971.4;;;8.5;100.0
51227;BME280;42714;48.260;10.980;2023-05-02T01:24:34;971.4;;;8.5;100.0
51227;BME280;42714;48.260;10.980;2023-05-02T01:29:31;971.4;;;8.4;100.0
51227;BME280;42714;48.260;10.980;2023-05-02T01:34:32;971.4;;;8.4;100.0
51227;BME280;42714;48.260;10.980;2023-05-02T01:39:33;971.5;;;8.4;100.0
51227;BME280;42714;48.260;10.980;2023-05-02T01:44:34;971.4;;;8.4;100.0
51227;BME280;42714;48.260;10.980;2023-05-02T01:49:35;971.5;;;8.4;100.0
51227;BME280;42714;48.260;10.980;2023-05-02T01:54:36;971.5;;;8.3;100.0
51227;BME280;42714;48.260;10.980;2023-05-02T01:59:37;971.5;;;8.3;100.0
51227;BME280;42714;48.260;10.980;2023-05-02T02:04:38;971.6;;;8.4;100.0
51227;BME280;42714;48.260;10.980;2023-05-02T02:09:39;971.5;;;8.4;100.0
51227;BME280;42714;48.260;10.980;2023-05-02T02:14:45;971.5;;;8.3;100.0
51227;BME280;42714;48.260;10.980;2023-05-02T02:19:41;971.5;;;8.4;100.0
51227;BME280;42714;48.260;10.980;2023-05-02T02:24:42;971.6;;;8.4;100.0
51227;BME280;42714;48.260;10.980;2023-05-02T02:29:43;971.6;;;8.4;100.0
51227;BME280;42714;48.260;10.980;2023-05-02T02:34:44;971.6;;;8.4;100.0
51227;BME280;42714;48.260;10.980;2023-05-02T02:39:50;971.7;;;8.4;100.0
51227;BME280;42714;48.260;10.980;2023-05-02T02:44:48;971.7;;;8.4;100.0
51227;BME280;42714;48.260;10.980;2023-05-02T02:49:48;971.8;;;8.4;100.0
51227;BME280;42714;48.260;10.980;2023-05-02T02:54:50;971.8;;;8.4;100.0
51227;BME280;42714;48.260;10.980;2023-05-02T02:59:54;971.8;;;8.4;100.0
51227;BME280;42714;48.260;10.980;2023-05-02T03:04:50;971.9;;;8.4;100.0
51227;BME280;42714;48.260;10.980;2023-05-02T03:09:51;971.9;;;8.4;100.0
51227;BME280;42714;48.260;10.980;2023-05-02T03:14:52;972.0;;;8.4;100.0
51227;BME280;42714;48.260;10.980;2023-05-02T03:19:53;972.0;;;8.3;100.0
51227;BME280;42714;48.260;10.980;2023-05-02T03:24:54;972.0;;;8.3;100.0
51227;BME280;42714;48.260;10.980;2023-05-02T03:29:55;972.1;;;8.3;100.0
51227;BME280;42714;48.260;10.980;2023-05-02T03:34:56;972.1;;;8.3;100.0
51227;BME280;42714;48.260;10.980;2023-05-02T03:39:57;972.1;;;8.3;100.0
51227;BME280;42714;48.260;10.980;2023-05-02T03:44:58;972.2;;;8.4;100.0
51227;BME280;42714;48.260;10.980;2023-05-02T03:49:59;972.2;;;8.4;100.0
51227;BME280;42714;48.260;10.980;2023-05-02T03:55:00;972.2;;;8.3;100.0
51227;BME280;42714;48.260;10.980;2023-05-02T04:00:01;972.2;;;8.3;100.0
51227;BME280;42714;48.260;10.980;2023-05-02T04:05:02;972.3;;;8.4;100.0
51227;BME280;42714;48.260;10.980;2023-05-02T04:25:07;972.4;;;8.5;100.0
51227;BME280;42714;48.260;10.980;2023-05-02T04:30:07;972.5;;;8.6;100.0
51227;BME280;42714;48.260;10.980;2023-05-02T04:35:08;972.6;;;8.7;100.0
51227;BME280;42714;48.260;10.980;2023-05-02T04:45:10;972.6;;;8.8;100.0
51227;BME280;42714;48.260;10.980;2023-05-02T04:50:11;972.7;;;8.8;100.0
51227;BME280;42714;48.260;10.980;2023-05-02T04:55:12;972.8;;;8.9;100.0
51227;BME280;42714;48.260;10.980;2023-05-02T05:00:13;972.9;;;9.0;100.0
51227;BME280;42714;48.260;10.980;2023-05-02T05:05:14;973.0;;;9.1;100.0
51227;BME280;42714;48.260;10.980;2023-05-02T05:10:15;973.1;;;9.3;100.0
51227;BME280;42714;48.260;10.980;2023-05-02T05:15:16;973.1;;;9.5;100.0
51227;BME280;42714;48.260;10.980;2023-05-02T05:20:17;973.0;;;9.6;100.0
51227;BME280;42714;48.260;10.980;2023-05-02T05:25:18;973.1;;;9.7;100.0
51227;BME280;42714;48.260;10.980;2023-05-02T05:30:19;973.2;;;9.9;100.0
51227;BME280;42714;48.260;10.980;2023-05-02T05:35:20;973.2;;;10.1;100.0
51227;BME280;42714;48.260;10.980;2023-05-02T05:40:21;973.3;;;10.6;100.0
51227;BME280;42714;48.260;10.980;2023-05-02T05:45:22;973.2;;;11.0;100.0
51227;BME280;42714;48.260;10.980;2023-05-02T05:50:23;973.2;;;11.1;100.0
51227;BME280;42714;48.260;10.980;2023-05-02T05:55:26;973.2;;;11.4;100.0
51227;BME280;42714;48.260;10.980;2023-05-02T06:00:25;973.2;;;11.6;100.0
51227;BME280;42714;48.260;10.980;2023-05-02T06:05:26;973.2;;;12.0;100.0
51227;BME280;42714;48.260;10.980;2023-05-02T06:10:27;973.2;;;12.4;100.0
51227;BME280;42714;48.260;10.980;2023-05-02T06:15:28;973.2;;;12.7;100.0
51227;BME280;42714;48.260;10.980;2023-05-02T06:20:29;973.3;;;13.1;100.0
51227;BME280;42714;48.260;10.980;2023-05-02T06:25:30;973.3;;;13.8;100.0
51227;BME280;42714;48.260;10.980;2023-05-02T06:30:31;973.4;;;14.3;100.0
51227;BME280;42714;48.260;10.980;2023-05-02T06:35:32;973.5;;;14.7;100.0
51227;BME280;42714;48.260;10.980;2023-05-02T06:40:33;973.5;;;14.9;100.0
51227;BME280;42714;48.260;10.980;2023-05-02T06:45:34;973.6;;;15.0;100.0
51227;BME280;42714;48.260;10.980;2023-05-02T06:50:35;973.6;;;15.2;100.0
51227;BME280;42714;48.260;10.980;2023-05-02T06:55:36;973.7;;;15.2;100.0
51227;BME280;42714;48.260;10.980;2023-05-02T07:00:37;973.7;;;15.4;100.0
51227;BME280;42714;48.260;10.980;2023-05-02T07:05:38;973.7;;;15.5;100.0
51227;BME280;42714;48.260;10.980;2023-05-02T07:10:39;973.8;;;15.8;100.0
51227;BME280;42714;48.260;10.980;2023-05-02T07:15:41;973.9;;;15.6;100.0
51227;BME280;42714;48.260;10.980;2023-05-02T07:20:41;973.9;;;15.9;100.0
51227;BME280;42714;48.260;10.980;2023-05-02T07:25:42;973.8;;;16.6;100.0
51227;BME280;42714;48.260;10.980;2023-05-02T07:30:43;973.7;;;17.2;97.6
51227;BME280;42714;48.260;10.980;2023-05-02T07:35:44;973.7;;;17.7;93.0
51227;BME280;42714;48.260;10.980;2023-05-02T07:40:45;973.8;;;18.1;87.4
51227;BME280;42714;48.260;10.980;2023-05-02T07:45:46;973.8;;;18.0;81.0
51227;BME280;42714;48.260;10.980;2023-05-02T07:50:47;973.8;;;18.3;87.7
51227;BME280;42714;48.260;10.980;2023-05-02T07:55:48;973.8;;;18.7;80.7
51227;BME280;42714;48.260;10.980;2023-05-02T08:00:49;973.9;;;19.0;78.0
51227;BME280;42714;48.260;10.980;2023-05-02T08:05:50;974.0;;;18.5;78.4
51227;BME280;42714;48.260;10.980;2023-05-02T08:10:51;974.0;;;18.6;79.9
51227;BME280;42714;48.260;10.980;2023-05-02T08:15:52;974.0;;;19.2;75.3
51227;BME280;42714;48.260;10.980;2023-05-02T08:20:54;974.0;;;19.8;68.8
51227;BME280;42714;48.260;10.980;2023-05-02T08:25:54;973.9;;;20.1;67.5
51227;BME280;42714;48.260;10.980;2023-05-02T08:30:55;974.0;;;20.4;68.0
51227;BME280;42714;48.260;10.980;2023-05-02T08:35:56;974.0;;;20.7;65.6
51227;BME280;42714;48.260;10.980;2023-05-02T08:40:57;974.1;;;20.2;63.6
51227;BME280;42714;48.260;10.980;2023-05-02T08:45:58;974.2;;;19.7;68.0
51227;BME280;42714;48.260;10.980;2023-05-02T08:50:59;974.2;;;18.9;71.4
51227;BME280;42714;48.260;10.980;2023-05-02T08:56:00;974.4;;;18.5;72.6
51227;BME280;42714;48.260;10.980;2023-05-02T09:01:05;974.4;;;18.3;75.4
51227;BME280;42714;48.260;10.980;2023-05-02T09:06:04;974.4;;;18.0;78.4
51227;BME280;42714;48.260;10.980;2023-05-02T09:11:03;974.4;;;18.1;77.4
51227;BME280;42714;48.260;10.980;2023-05-02T09:16:05;974.5;;;18.2;77.5
51227;BME280;42714;48.260;10.980;2023-05-02T09:21:06;974.5;;;18.3;78.7
51227;BME280;42714;48.260;10.980;2023-05-02T09:31:08;974.5;;;18.5;75.5
51227;BME280;42714;48.260;10.980;2023-05-02T09:36:09;974.6;;;19.0;71.8
51227;BME280;42714;48.260;10.980;2023-05-02T09:41:09;974.6;;;18.9;67.4
51227;BME280;42714;48.260;10.980;2023-05-02T09:46:10;974.6;;;18.3;71.6
51227;BME280;42714;48.260;10.980;2023-05-02T09:51:15;974.6;;;18.5;73.5
51227;BME280;42714;48.260;10.980;2023-05-02T09:56:12;974.6;;;19.4;70.0
51227;BME280;42714;48.260;10.980;2023-05-02T10:01:14;974.6;;;21.5;57.9
51227;BME280;42714;48.260;10.980;2023-05-02T10:06:14;974.6;;;22.3;51.2
51227;BME280;42714;48.260;10.980;2023-05-02T10:11:15;974.6;;;21.7;55.9
51227;BME280;42714;48.260;10.980;2023-05-02T10:16:18;974.6;;;21.4;53.9
51227;BME280;42714;48.260;10.980;2023-05-02T10:21:19;974.5;;;22.7;49.3
51227;BME280;42714;48.260;10.980;2023-05-02T10:26:18;974.5;;;22.6;48.1
51227;BME280;42714;48.260;10.980;2023-05-02T10:31:19;974.6;;;21.5;49.6
51227;BME280;42714;48.260;10.980;2023-05-02T10:36:21;974.6;;;20.2;55.0
51227;BME280;42714;48.260;10.980;2023-05-02T10:41:22;974.6;;;18.4;70.7
51227;BME280;42714;48.260;10.980;2023-05-02T10:51:27;974.6;;;16.6;89.7
51227;BME280;42714;48.260;10.980;2023-05-02T10:56:24;974.6;;;16.2;97.6
51227;BME280;42714;48.260;10.980;2023-05-02T11:06:27;974.6;;;16.2;100.0
51227;BME280;42714;48.260;10.980;2023-05-02T11:17:04;974.5;;;17.0;87.4
51227;BME280;42714;48.260;10.980;2023-05-02T11:21:29;974.5;;;17.5;85.0
51227;BME280;42714;48.260;10.980;2023-05-02T11:26:30;974.4;;;18.7;73.0
51227;BME280;42714;48.260;10.980;2023-05-02T11:36:33;974.4;;;19.9;60.8
51227;BME280;42714;48.260;10.980;2023-05-02T11:46:35;974.2;;;22.9;49.1
51227;BME280;42714;48.260;10.980;2023-05-02T11:51:35;974.1;;;24.2;43.3
51227;BME280;42714;48.260;10.980;2023-05-02T11:56:36;974.1;;;24.1;42.2
51227;BME280;42714;48.260;10.980;2023-05-02T12:01:46;974.2;;;24.7;41.2
51227;BME280;42714;48.260;10.980;2023-05-02T12:06:43;974.1;;;25.5;40.3
51227;BME280;42714;48.260;10.980;2023-05-02T12:11:39;974.1;;;26.7;38.5
51227;BME280;42714;48.260;10.980;2023-05-02T12:16:40;974.1;;;27.3;34.3
51227;BME280;42714;48.260;10.980;2023-05-02T12:21:41;974.1;;;26.0;37.1
51227;BME280;42714;48.260;10.980;2023-05-02T12:26:42;974.2;;;24.1;38.4
51227;BME280;42714;48.260;10.980;2023-05-02T12:31:53;974.1;;;24.3;40.1
51227;BME280;42714;48.260;10.980;2023-05-02T12:36:44;974.1;;;25.2;38.2
51227;BME280;42714;48.260;10.980;2023-05-02T12:41:46;974.1;;;26.4;37.0
51227;BME280;42714;48.260;10.980;2023-05-02T12:51:51;974.2;;;23.9;39.5
51227;BME280;42714;48.260;10.980;2023-05-02T12:56:48;974.1;;;24.3;38.3
51227;BME280;42714;48.260;10.980;2023-05-02T13:01:49;974.0;;;27.1;32.2
51227;BME280;42714;48.260;10.980;2023-05-02T13:06:50;974.0;;;28.3;30.0
51227;BME280;42714;48.260;10.980;2023-05-02T13:11:51;973.9;;;29.9;29.1
51227;BME280;42714;48.260;10.980;2023-05-02T13:16:52;973.9;;;31.5;25.8
51227;BME280;42714;48.260;10.980;2023-05-02T13:21:53;973.9;;;29.8;28.8
51227;BME280;42714;48.260;10.980;2023-05-02T13:26:54;973.9;;;30.4;27.8
51227;BME280;42714;48.260;10.980;2023-05-02T13:31:55;973.9;;;28.9;27.5
51227;BME280;42714;48.260;10.980;2023-05-02T13:36:56;974.0;;;26.9;31.9
51227;BME280;42714;48.260;10.980;2023-05-02T13:41:57;974.0;;;24.7;35.4
51227;BME280;42714;48.260;10.980;2023-05-02T13:46:58;974.1;;;22.6;40.0
51227;BME280;42714;48.260;10.980;2023-05-02T13:51:59;974.1;;;20.2;46.4
51227;BME280;42714;48.260;10.980;2023-05-02T13:57:00;974.1;;;19.1;52.8
51227;BME280;42714;48.260;10.980;2023-05-02T14:02:01;974.1;;;19.8;48.5
51227;BME280;42714;48.260;10.980;2023-05-02T14:07:02;974.0;;;21.2;44.1
51227;BME280;42714;48.260;10.980;2023-05-02T14:12:03;973.9;;;23.1;38.6
51227;BME280;42714;48.260;10.980;2023-05-02T14:17:04;974.0;;;22.6;39.2
51227;BME280;42714;48.260;10.980;2023-05-02T14:22:05;974.1;;;21.2;40.9
51227;BME280;42714;48.260;10.980;2023-05-02T14:27:06;974.1;;;20.7;42.4
51227;BME280;42714;48.260;10.980;2023-05-02T14:32:07;974.0;;;19.6;45.1
51227;BME280;42714;48.260;10.980;2023-05-02T14:37:08;974.1;;;19.1;46.4
51227;BME280;42714;48.260;10.980;2023-05-02T14:42:09;974.1;;;18.5;49.1
51227;BME280;42714;48.260;10.980;2023-05-02T14:47:10;974.2;;;17.8;61.7
51227;BME280;42714;48.260;10.980;2023-05-02T14:52:11;974.4;;;15.9;81.6
51227;BME280;42714;48.260;10.980;2023-05-02T14:57:12;974.5;;;15.0;93.5
51227;BME280;42714;48.260;10.980;2023-05-02T15:02:13;974.5;;;14.7;93.7
51227;BME280;42714;48.260;10.980;2023-05-02T15:07:14;974.5;;;15.0;89.7
51227;BME280;42714;48.260;10.980;2023-05-02T15:12:15;974.5;;;15.0;89.0
51227;BME280;42714;48.260;10.980;2023-05-02T15:17:16;974.5;;;14.4;93.3
51227;BME280;42714;48.260;10.980;2023-05-02T15:22:17;974.7;;;14.0;100.0
51227;BME280;42714;48.260;10.980;2023-05-02T15:27:18;974.9;;;12.8;100.0
51227;BME280;42714;48.260;10.980;2023-05-02T15:32:20;975.3;;;12.4;100.0
51227;BME280;42714;48.260;10.980;2023-05-02T15:37:20;975.4;;;11.9;100.0
51227;BME280;42714;48.260;10.980;2023-05-02T15:42:21;975.3;;;11.3;100.0
51227;BME280;42714;48.260;10.980;2023-05-02T15:47:23;975.4;;;11.3;100.0
51227;BME280;42714;48.260;10.980;2023-05-02T15:52:23;975.6;;;11.4;100.0
51227;BME280;42714;48.260;10.980;2023-05-02T15:57:24;975.7;;;11.5;100.0
51227;BME280;42714;48.260;10.980;2023-05-02T16:02:25;975.8;;;11.5;100.0
51227;BME280;42714;48.260;10.980;2023-05-02T16:07:27;975.8;;;11.5;100.0
51227;BME280;42714;48.260;10.980;2023-05-02T16:12:27;975.8;;;12.0;100.0
51227;BME280;42714;48.260;10.980;2023-05-02T16:17:29;975.7;;;12.2;100.0
51227;BME280;42714;48.260;10.980;2023-05-02T16:22:30;975.7;;;12.1;100.0
51227;BME280;42714;48.260;10.980;2023-05-02T16:27:31;975.7;;;12.3;100.0
51227;BME280;42714;48.260;10.980;2023-05-02T16:32:32;975.8;;;12.0;100.0
51227;BME280;42714;48.260;10.980;2023-05-02T16:37:33;975.9;;;12.4;100.0
51227;BME280;42714;48.260;10.980;2023-05-02T16:42:34;975.8;;;12.1;100.0
51227;BME280;42714;48.260;10.980;2023-05-02T16:47:35;975.7;;;11.8;100.0
51227;BME280;42714;48.260;10.980;2023-05-02T16:52:36;975.9;;;11.5;100.0
51227;BME280;42714;48.260;10.980;2023-05-02T16:57:37;976.0;;;11.1;100.0
51227;BME280;42714;48.260;10.980;2023-05-02T17:02:38;976.1;;;10.9;100.0
51227;BME280;42714;48.260;10.980;2023-05-02T17:07:39;976.3;;;10.8;100.0
51227;BME280;42714;48.260;10.980;2023-05-02T17:12:40;976.4;;;10.7;100.0
51227;BME280;42714;48.260;10.980;2023-05-02T17:17:41;976.5;;;10.6;100.0
51227;BME280;42714;48.260;10.980;2023-05-02T17:22:42;976.5;;;10.7;100.0
51227;BME280;42714;48.260;10.980;2023-05-02T17:27:43;976.4;;;11.0;100.0
51227;BME280;42714;48.260;10.980;2023-05-02T17:32:44;976.4;;;10.9;100.0
51227;BME280;42714;48.260;10.980;2023-05-02T17:37:45;976.4;;;10.9;100.0
51227;BME280;42714;48.260;10.980;2023-05-02T17:42:46;976.5;;;10.9;100.0
51227;BME280;42714;48.260;10.980;2023-05-02T17:47:47;976.6;;;10.9;100.0
51227;BME280;42714;48.260;10.980;2023-05-02T17:52:48;976.6;;;10.9;100.0
51227;BME280;42714;48.260;10.980;2023-05-02T17:57:49;976.6;;;10.8;100.0
51227;BME280;42714;48.260;10.980;2023-05-02T18:02:50;976.7;;;10.7;100.0
51227;BME280;42714;48.260;10.980;2023-05-02T18:07:51;976.7;;;10.5;100.0
51227;BME280;42714;48.260;10.980;2023-05-02T18:12:52;976.7;;;10.2;100.0
51227;BME280;42714;48.260;10.980;2023-05-02T18:17:53;976.7;;;10.2;100.0
51227;BME280;42714;48.260;10.980;2023-05-02T18:22:54;976.8;;;10.2;100.0
51227;BME280;42714;48.260;10.980;2023-05-02T18:27:55;976.8;;;10.1;100.0
51227;BME280;42714;48.260;10.980;2023-05-02T18:32:56;976.8;;;10.1;100.0
51227;BME280;42714;48.260;10.980;2023-05-02T18:37:57;976.9;;;10.1;100.0
51227;BME280;42714;48.260;10.980;2023-05-02T18:42:58;976.9;;;10.1;100.0
51227;BME280;42714;48.260;10.980;2023-05-02T18:47:59;976.9;;;10.1;100.0
51227;BME280;42714;48.260;10.980;2023-05-02T18:53:00;977.0;;;10.0;100.0
51227;BME280;42714;48.260;10.980;2023-05-02T18:58:01;977.0;;;10.0;100.0
51227;BME280;42714;48.260;10.980;2023-05-02T19:03:02;977.1;;;9.9;100.0
51227;BME280;42714;48.260;10.980;2023-05-02T19:08:03;977.1;;;9.8;100.0
51227;BME280;42714;48.260;10.980;2023-05-02T19:13:04;977.1;;;9.7;100.0
51227;BME280;42714;48.260;10.980;2023-05-02T19:18:05;977.1;;;9.6;100.0
51227;BME280;42714;48.260;10.980;2023-05-02T19:23:06;977.2;;;9.6;100.0
51227;BME280;42714;48.260;10.980;2023-05-02T19:28:07;977.3;;;9.7;100.0
51227;BME280;42714;48.260;10.980;2023-05-02T19:33:08;977.4;;;9.8;100.0
51227;BME280;42714;48.260;10.980;2023-05-02T19:38:09;977.5;;;9.8;100.0
51227;BME280;42714;48.260;10.980;2023-05-02T19:43:10;977.5;;;9.7;100.0
51227;BME280;42714;48.260;10.980;2023-05-02T19:48:11;977.5;;;9.7;100.0
51227;BME280;42714;48.260;10.980;2023-05-02T19:53:12;977.5;;;9.7;100.0
51227;BME280;42714;48.260;10.980;2023-05-02T19:58:13;977.6;;;9.7;100.0
51227;BME280;42714;48.260;10.980;2023-05-02T20:03:14;977.6;;;9.8;100.0
51227;BME280;42714;48.260;10.980;2023-05-02T20:08:15;977.5;;;9.8;100.0
51227;BME280;42714;48.260;10.980;2023-05-02T20:13:16;977.5;;;9.8;100.0
51227;BME280;42714;48.260;10.980;2023-05-02T20:18:17;977.5;;;9.7;100.0
51227;BME280;42714;48.260;10.980;2023-05-02T20:23:18;977.5;;;9.6;100.0
51227;BME280;42714;48.260;10.980;2023-05-02T20:28:19;977.5;;;9.4;100.0
51227;BME280;42714;48.260;10.980;2023-05-02T20:33:20;977.6;;;9.4;100.0
51227;BME280;42714;48.260;10.980;2023-05-02T20:38:21;977.6;;;9.3;100.0
51227;BME280;42714;48.260;10.980;2023-05-02T20:43:22;977.6;;;9.3;100.0
51227;BME280;42714;48.260;10.980;2023-05-02T20:48:23;977.6;;;9.1;100.0
51227;BME280;42714;48.260;10.980;2023-05-02T20:53:24;977.6;;;9.1;100.0
51227;BME280;42714;48.260;10.980;2023-05-02T20:58:25;977.6;;;9.0;100.0
51227;BME280;42714;48.260;10.980;2023-05-02T21:03:26;977.6;;;8.9;100.0
51227;BME280;42714;48.260;10.980;2023-05-02T21:08:28;977.6;;;9.0;100.0
51227;BME280;42714;48.260;10.980;2023-05-02T21:13:29;977.6;;;8.9;100.0
51227;BME280;42714;48.260;10.980;2023-05-02T21:18:30;977.6;;;8.9;100.0
51227;BME280;42714;48.260;10.980;2023-05-02T21:23:31;977.7;;;8.8;100.0
51227;BME280;42714;48.260;10.980;2023-05-02T21:28:32;977.6;;;8.7;100.0
51227;BME280;42714;48.260;10.980;2023-05-02T21:33:33;977.6;;;8.6;100.0
51227;BME280;42714;48.260;10.980;2023-05-02T21:38:34;977.6;;;8.6;100.0
51227;BME280;42714;48.260;10.980;2023-05-02T21:43:36;977.6;;;8.5;100.0
51227;BME280;42714;48.260;10.980;2023-05-02T21:48:36;977.6;;;8.4;100.0
51227;BME280;42714;48.260;10.980;2023-05-02T21:53:37;977.6;;;8.4;100.0
51227;BME280;42714;48.260;10.980;2023-05-02T21:58:38;977.5;;;8.3;100.0
51227;BME280;42714;48.260;10.980;2023-05-02T22:03:39;977.6;;;8.2;100.0
51227;BME280;42714;48.260;10.980;2023-05-02T22:08:40;977.5;;;8.2;100.0
51227;BME280;42714;48.260;10.980;2023-05-02T22:13:41;977.5;;;8.1;100.0
51227;BME280;42714;48.260;10.980;2023-05-02T22:18:42;977.5;;;8.1;100.0
51227;BME280;42714;48.260;10.980;2023-05-02T22:23:43;977.5;;;8.0;100.0
51227;BME280;42714;48.260;10.980;2023-05-02T22:28:44;977.5;;;8.0;100.0
51227;BME280;42714;48.260;10.980;2023-05-02T22:33:45;977.5;;;7.9;100.0
51227;BME280;42714;48.260;10.980;2023-05-02T22:38:46;977.6;;;7.8;100.0
51227;BME280;42714;48.260;10.980;2023-05-02T22:43:47;977.5;;;7.8;100.0
51227;BME280;42714;48.260;10.980;2023-05-02T22:48:48;977.5;;;7.6;100.0
51227;BME280;42714;48.260;10.980;2023-05-02T22:53:49;977.5;;;7.5;100.0
51227;BME280;42714;48.260;10.980;2023-05-02T22:58:50;977.6;;;7.5;100.0
51227;BME280;42714;48.260;10.980;2023-05-02T23:03:51;977.6;;;7.4;100.0
51227;BME280;42714;48.260;10.980;2023-05-02T23:08:52;977.6;;;7.3;100.0
51227;BME280;42714;48.260;10.980;2023-05-02T23:13:53;977.6;;;7.3;100.0
51227;BME280;42714;48.260;10.980;2023-05-02T23:18:54;977.6;;;7.2;100.0
51227;BME280;42714;48.260;10.980;2023-05-02T23:23:55;977.6;;;7.2;100.0
51227;BME280;42714;48.260;10.980;2023-05-02T23:28:56;977.6;;;7.1;100.0
51227;BME280;42714;48.260;10.980;2023-05-02T23:33:57;977.6;;;7.0;100.0
51227;BME280;42714;48.260;10.980;2023-05-02T23:38:59;977.6;;;7.0;100.0
51227;BME280;42714;48.260;10.980;2023-05-02T23:43:59;977.6;;;6.8;100.0
51227;BME280;42714;48.260;10.980;2023-05-02T23:49:00;977.6;;;6.8;100.0
51227;BME280;42714;48.260;10.980;2023-05-02T23:54:01;977.6;;;6.8;100.0
51227;BME280;42714;48.260;10.980;2023-05-02T23:59:02;977.6;;;6.8;100.0
